首页
METAR-TAF:

METAR-TAF

机场 :

莫斯塔爾, 波斯尼亚和黑塞哥维那

纬度: 43-21N, 经度: 017-48E, 海拔: 108米

METAR: 丢失

时间: 01:35 (23:35 UTC)

预报

该预报发布于36小时和35分钟前的11:00 UTC
预报有效从30日的 12点(UTC)到 31日的 12点(UTC)
风速2节,风向多变
能见度10公里或以上
散云层高于5000英尺
几率 40% :
短暂存在
从 30日的 12点(UTC)到 30日的 20点(UTC)
少量云层高于3500英尺, 塔状积云.
多云层高于4000英尺
阵雨
几率 30% :
短暂存在
从 30日的 12点(UTC)到 30日的 20点(UTC)
少量云层高于3300英尺, 积雨云.
多云层高于4000英尺
雷暴, 小雨

TAF: LQMO 301100Z 3012/3112 VRB02KT 9999 SCT050 TX25/3112Z TN14/3103Z PROB40 TEMPO 3012/3020 SHRA FEW035TCU BKN040 PROB30 TEMPO 3012/3020 -TSRA FEW033CB BKN040

超过4000个机场的气象观测和天气预报(METAR&TAF报告)。

可查询的气象台以黄色和红色小点在地图上表示。

将鼠标移到小点上方,可查看气象台名称。

然后点击查看天气观测和预报。

如需切换地图:点击带黑十字的绿色按钮放大地图;点击带横线的绿色按钮缩小地图;或者点击绿色箭头查看邻近地区的地图。


METAR-TAF: